sensor_id;sensor_type;location;lat;lon;timestamp;pressure;altitude;pressure_sealevel;temperature;humidity
53659;BME280;41524;35.624;139.698;2022-09-17T00:00:16;101380.00;;;28.24;46.24
53659;BME280;41524;35.624;139.698;2022-09-17T00:05:11;101372.00;;;28.25;45.56
53659;BME280;41524;35.624;139.698;2022-09-17T00:10:11;101368.00;;;29.29;45.13
53659;BME280;41524;35.624;139.698;2022-09-17T00:15:11;101369.00;;;28.94;44.84
53659;BME280;41524;35.624;139.698;2022-09-17T00:20:11;101370.00;;;29.78;43.96
53659;BME280;41524;35.624;139.698;2022-09-17T00:25:12;101375.00;;;29.08;43.57
53659;BME280;41524;35.624;139.698;2022-09-17T00:30:14;101374.00;;;27.50;45.89
53659;BME280;41524;35.624;139.698;2022-09-17T00:35:11;101372.00;;;28.56;44.42
53659;BME280;41524;35.624;139.698;2022-09-17T00:40:12;101378.00;;;27.98;44.16
53659;BME280;41524;35.624;139.698;2022-09-17T00:45:11;101367.00;;;28.89;43.36
53659;BME280;41524;35.624;139.698;2022-09-17T00:50:15;101362.00;;;28.41;44.34
53659;BME280;41524;35.624;139.698;2022-09-17T00:55:15;101355.00;;;29.00;43.94
53659;BME280;41524;35.624;139.698;2022-09-17T01:00:11;101349.00;;;27.31;46.76
53659;BME280;41524;35.624;139.698;2022-09-17T01:05:12;101346.00;;;27.92;43.42
53659;BME280;41524;35.624;139.698;2022-09-17T01:10:20;101344.00;;;27.92;44.33
53659;BME280;41524;35.624;139.698;2022-09-17T01:15:19;101331.00;;;28.23;43.65
53659;BME280;41524;35.624;139.698;2022-09-17T01:20:39;101324.00;;;27.74;44.23
53659;BME280;41524;35.624;139.698;2022-09-17T01:25:22;101316.00;;;27.98;44.48
53659;BME280;41524;35.624;139.698;2022-09-17T01:30:27;101311.00;;;27.51;45.29
53659;BME280;41524;35.624;139.698;2022-09-17T01:35:20;101308.00;;;28.56;42.25
53659;BME280;41524;35.624;139.698;2022-09-17T01:40:14;101301.00;;;29.69;40.95
53659;BME280;41524;35.624;139.698;2022-09-17T01:45:14;101292.00;;;27.34;43.42
53659;BME280;41524;35.624;139.698;2022-09-17T01:50:13;101298.00;;;27.96;43.36
53659;BME280;41524;35.624;139.698;2022-09-17T01:55:13;101297.00;;;27.23;43.02
53659;BME280;41524;35.624;139.698;2022-09-17T02:00:13;101299.00;;;28.24;41.27
53659;BME280;41524;35.624;139.698;2022-09-17T02:05:16;101297.00;;;28.90;42.49
53659;BME280;41524;35.624;139.698;2022-09-17T02:10:14;101297.00;;;26.50;44.97
53659;BME280;41524;35.624;139.698;2022-09-17T02:15:14;101284.00;;;28.21;43.31
53659;BME280;41524;35.624;139.698;2022-09-17T02:20:11;101283.00;;;28.31;43.24
53659;BME280;41524;35.624;139.698;2022-09-17T02:25:17;101282.00;;;27.88;44.45
53659;BME280;41524;35.624;139.698;2022-09-17T02:30:11;101283.00;;;29.19;41.83
53659;BME280;41524;35.624;139.698;2022-09-17T02:35:17;101276.00;;;27.87;44.23
53659;BME280;41524;35.624;139.698;2022-09-17T02:40:17;101273.00;;;26.34;47.28
53659;BME280;41524;35.624;139.698;2022-09-17T02:45:17;101265.00;;;27.40;46.39
53659;BME280;41524;35.624;139.698;2022-09-17T02:50:28;101270.00;;;27.66;43.32
53659;BME280;41524;35.624;139.698;2022-09-17T02:55:17;101254.00;;;28.89;42.34
53659;BME280;41524;35.624;139.698;2022-09-17T03:00:14;101258.00;;;28.16;44.12
53659;BME280;41524;35.624;139.698;2022-09-17T03:05:11;101261.00;;;28.33;43.83
53659;BME280;41524;35.624;139.698;2022-09-17T03:10:12;101252.00;;;27.95;43.82
53659;BME280;41524;35.624;139.698;2022-09-17T03:15:11;101241.00;;;27.96;43.79
53659;BME280;41524;35.624;139.698;2022-09-17T03:20:11;101243.00;;;27.65;44.11
53659;BME280;41524;35.624;139.698;2022-09-17T03:25:12;101238.00;;;28.34;42.13
53659;BME280;41524;35.624;139.698;2022-09-17T03:30:11;101239.00;;;29.88;39.83
53659;BME280;41524;35.624;139.698;2022-09-17T03:35:15;101237.00;;;28.73;42.10
53659;BME280;41524;35.624;139.698;2022-09-17T03:40:11;101230.00;;;28.12;43.51
53659;BME280;41524;35.624;139.698;2022-09-17T03:45:15;101229.00;;;27.88;44.17
53659;BME280;41524;35.624;139.698;2022-09-17T03:50:21;101214.00;;;27.96;43.54
53659;BME280;41524;35.624;139.698;2022-09-17T03:55:17;101219.00;;;29.31;41.33
53659;BME280;41524;35.624;139.698;2022-09-17T04:00:12;101205.00;;;29.87;40.56
53659;BME280;41524;35.624;139.698;2022-09-17T04:05:11;101200.00;;;27.96;43.99
53659;BME280;41524;35.624;139.698;2022-09-17T04:10:11;101208.00;;;27.82;44.16
53659;BME280;41524;35.624;139.698;2022-09-17T04:15:12;101208.00;;;28.83;41.98
53659;BME280;41524;35.624;139.698;2022-09-17T04:20:11;101205.00;;;30.55;39.83
53659;BME280;41524;35.624;139.698;2022-09-17T04:25:11;101201.00;;;28.31;42.33
53659;BME280;41524;35.624;139.698;2022-09-17T04:30:21;101195.00;;;28.39;42.48
53659;BME280;41524;35.624;139.698;2022-09-17T04:35:11;101192.00;;;27.98;42.12
53659;BME280;41524;35.624;139.698;2022-09-17T04:40:11;101184.00;;;27.57;42.65
53659;BME280;41524;35.624;139.698;2022-09-17T04:45:20;101174.00;;;28.65;42.44
53659;BME280;41524;35.624;139.698;2022-09-17T04:50:10;101171.00;;;29.74;40.40
53659;BME280;41524;35.624;139.698;2022-09-17T04:55:11;101163.00;;;28.92;40.31
53659;BME280;41524;35.624;139.698;2022-09-17T05:00:14;101166.00;;;27.72;41.98
53659;BME280;41524;35.624;139.698;2022-09-17T05:05:16;101165.00;;;29.26;39.57
53659;BME280;41524;35.624;139.698;2022-09-17T05:10:18;101161.00;;;30.48;39.21
53659;BME280;41524;35.624;139.698;2022-09-17T05:15:10;101163.00;;;29.07;39.92
53659;BME280;41524;35.624;139.698;2022-09-17T05:20:11;101154.00;;;29.09;40.61
53659;BME280;41524;35.624;139.698;2022-09-17T05:25:11;101152.00;;;29.26;40.54
53659;BME280;41524;35.624;139.698;2022-09-17T05:30:11;101152.00;;;29.14;41.33
53659;BME280;41524;35.624;139.698;2022-09-17T05:35:11;101158.00;;;27.45;45.37
53659;BME280;41524;35.624;139.698;2022-09-17T05:40:11;101148.00;;;27.31;46.87
53659;BME280;41524;35.624;139.698;2022-09-17T05:45:11;101150.00;;;28.10;45.05
53659;BME280;41524;35.624;139.698;2022-09-17T05:50:11;101139.00;;;27.96;46.04
53659;BME280;41524;35.624;139.698;2022-09-17T05:55:11;101134.00;;;27.57;46.36
53659;BME280;41524;35.624;139.698;2022-09-17T06:00:12;101139.00;;;27.01;46.55
53659;BME280;41524;35.624;139.698;2022-09-17T06:05:11;101141.00;;;25.96;47.64
53659;BME280;41524;35.624;139.698;2022-09-17T06:10:15;101142.00;;;27.49;44.64
53659;BME280;41524;35.624;139.698;2022-09-17T06:15:12;101148.00;;;27.20;46.03
53659;BME280;41524;35.624;139.698;2022-09-17T06:20:11;101146.00;;;27.49;44.77
53659;BME280;41524;35.624;139.698;2022-09-17T06:25:11;101147.00;;;28.13;45.06
53659;BME280;41524;35.624;139.698;2022-09-17T06:30:12;101146.00;;;27.87;45.81
53659;BME280;41524;35.624;139.698;2022-09-17T06:35:17;101148.00;;;28.20;45.54
53659;BME280;41524;35.624;139.698;2022-09-17T06:40:12;101152.00;;;28.13;45.66
53659;BME280;41524;35.624;139.698;2022-09-17T06:45:11;101152.00;;;28.22;44.89
53659;BME280;41524;35.624;139.698;2022-09-17T06:50:15;101154.00;;;27.38;46.29
53659;BME280;41524;35.624;139.698;2022-09-17T06:55:10;101145.00;;;27.56;45.91
53659;BME280;41524;35.624;139.698;2022-09-17T07:00:11;101149.00;;;27.86;43.99
53659;BME280;41524;35.624;139.698;2022-09-17T07:05:17;101155.00;;;27.93;44.79
53659;BME280;41524;35.624;139.698;2022-09-17T07:10:15;101150.00;;;27.51;45.31
53659;BME280;41524;35.624;139.698;2022-09-17T07:15:12;101149.00;;;27.87;44.77
53659;BME280;41524;35.624;139.698;2022-09-17T07:20:11;101153.00;;;27.48;44.93
53659;BME280;41524;35.624;139.698;2022-09-17T07:25:12;101160.00;;;27.61;44.48
53659;BME280;41524;35.624;139.698;2022-09-17T07:30:12;101165.00;;;27.42;44.40
53659;BME280;41524;35.624;139.698;2022-09-17T07:35:12;101160.00;;;27.61;43.37
53659;BME280;41524;35.624;139.698;2022-09-17T07:40:17;101166.00;;;27.73;43.64
53659;BME280;41524;35.624;139.698;2022-09-17T07:45:11;101170.00;;;27.97;44.20
53659;BME280;41524;35.624;139.698;2022-09-17T07:50:16;101164.00;;;28.19;43.59
53659;BME280;41524;35.624;139.698;2022-09-17T07:55:16;101161.00;;;28.43;43.53
53659;BME280;41524;35.624;139.698;2022-09-17T08:00:17;101161.00;;;28.40;43.82
53659;BME280;41524;35.624;139.698;2022-09-17T08:05:10;101173.00;;;26.66;47.22
53659;BME280;41524;35.624;139.698;2022-09-17T08:10:11;101171.00;;;28.40;44.59
53659;BME280;41524;35.624;139.698;2022-09-17T08:15:11;101172.00;;;28.16;45.88
53659;BME280;41524;35.624;139.698;2022-09-17T08:20:11;101175.00;;;26.65;50.88
53659;BME280;41524;35.624;139.698;2022-09-17T08:25:11;101174.00;;;27.37;50.24
53659;BME280;41524;35.624;139.698;2022-09-17T08:30:21;101177.00;;;27.31;50.81
53659;BME280;41524;35.624;139.698;2022-09-17T08:35:10;101174.00;;;27.30;51.48
53659;BME280;41524;35.624;139.698;2022-09-17T08:40:16;101186.00;;;27.62;50.59
53659;BME280;41524;35.624;139.698;2022-09-17T08:45:12;101182.00;;;26.26;53.72
53659;BME280;41524;35.624;139.698;2022-09-17T08:50:25;101186.00;;;26.52;53.62
53659;BME280;41524;35.624;139.698;2022-09-17T08:55:24;101188.00;;;26.31;54.12
53659;BME280;41524;35.624;139.698;2022-09-17T09:00:13;101191.00;;;27.30;51.62
53659;BME280;41524;35.624;139.698;2022-09-17T09:05:13;101189.00;;;27.76;51.36
53659;BME280;41524;35.624;139.698;2022-09-17T09:10:17;101193.00;;;25.30;55.99
53659;BME280;41524;35.624;139.698;2022-09-17T09:15:28;101198.00;;;26.54;53.80
53659;BME280;41524;35.624;139.698;2022-09-17T09:20:18;101209.00;;;26.14;54.51
53659;BME280;41524;35.624;139.698;2022-09-17T09:25:25;101212.00;;;26.81;53.66
53659;BME280;41524;35.624;139.698;2022-09-17T09:30:13;101212.00;;;26.11;54.67
53659;BME280;41524;35.624;139.698;2022-09-17T09:35:18;101220.00;;;25.35;56.34
53659;BME280;41524;35.624;139.698;2022-09-17T09:40:23;101224.00;;;25.81;56.06
53659;BME280;41524;35.624;139.698;2022-09-17T09:45:27;101232.00;;;24.41;57.91
53659;BME280;41524;35.624;139.698;2022-09-17T09:50:25;101244.00;;;25.67;54.87
53659;BME280;41524;35.624;139.698;2022-09-17T09:55:27;101251.00;;;25.18;55.71
53659;BME280;41524;35.624;139.698;2022-09-17T10:00:26;101255.00;;;26.37;53.61
53659;BME280;41524;35.624;139.698;2022-09-17T10:05:16;101267.00;;;25.18;56.41
53659;BME280;41524;35.624;139.698;2022-09-17T10:10:15;101260.00;;;26.78;52.50
53659;BME280;41524;35.624;139.698;2022-09-17T10:15:27;101272.00;;;27.11;52.02
53659;BME280;41524;35.624;139.698;2022-09-17T10:20:16;101274.00;;;27.09;51.66
53659;BME280;41524;35.624;139.698;2022-09-17T10:25:28;101273.00;;;26.75;52.01
53659;BME280;41524;35.624;139.698;2022-09-17T10:30:16;101286.00;;;26.86;51.49
53659;BME280;41524;35.624;139.698;2022-09-17T10:35:26;101291.00;;;26.34;52.44
53659;BME280;41524;35.624;139.698;2022-09-17T10:40:32;101288.00;;;26.56;52.51
53659;BME280;41524;35.624;139.698;2022-09-17T10:45:24;101290.00;;;26.03;53.62
53659;BME280;41524;35.624;139.698;2022-09-17T10:50:18;101298.00;;;26.61;52.49
53659;BME280;41524;35.624;139.698;2022-09-17T10:55:17;101302.00;;;26.26;53.07
53659;BME280;41524;35.624;139.698;2022-09-17T11:00:16;101307.00;;;26.23;53.73
53659;BME280;41524;35.624;139.698;2022-09-17T11:05:37;101324.00;;;26.09;54.40
53659;BME280;41524;35.624;139.698;2022-09-17T11:10:22;101330.00;;;24.93;56.68
53659;BME280;41524;35.624;139.698;2022-09-17T11:15:22;101328.00;;;26.43;53.83
53659;BME280;41524;35.624;139.698;2022-09-17T11:20:21;101325.00;;;26.97;52.10
53659;BME280;41524;35.624;139.698;2022-09-17T11:25:28;101320.00;;;26.37;52.99
53659;BME280;41524;35.624;139.698;2022-09-17T11:30:22;101321.00;;;26.41;52.94
53659;BME280;41524;35.624;139.698;2022-09-17T11:35:13;101327.00;;;25.39;55.36
53659;BME280;41524;35.624;139.698;2022-09-17T11:40:15;101321.00;;;26.77;52.91
53659;BME280;41524;35.624;139.698;2022-09-17T11:45:18;101327.00;;;26.29;53.73
53659;BME280;41524;35.624;139.698;2022-09-17T11:50:18;101332.00;;;25.37;56.01
53659;BME280;41524;35.624;139.698;2022-09-17T11:55:22;101337.00;;;25.44;56.46
53659;BME280;41524;35.624;139.698;2022-09-17T12:00:17;101327.00;;;25.13;57.34
53659;BME280;41524;35.624;139.698;2022-09-17T12:05:17;101324.00;;;24.93;58.87
53659;BME280;41524;35.624;139.698;2022-09-17T12:10:31;101318.00;;;25.27;58.24
53659;BME280;41524;35.624;139.698;2022-09-17T12:15:17;101321.00;;;25.63;57.80
53659;BME280;41524;35.624;139.698;2022-09-17T12:20:26;101322.00;;;25.36;58.50
53659;BME280;41524;35.624;139.698;2022-09-17T12:25:12;101316.00;;;26.27;55.99
53659;BME280;41524;35.624;139.698;2022-09-17T12:30:18;101312.00;;;24.63;59.18
53659;BME280;41524;35.624;139.698;2022-09-17T12:35:25;101301.00;;;25.22;57.45
53659;BME280;41524;35.624;139.698;2022-09-17T12:40:18;101291.00;;;25.30;57.05
53659;BME280;41524;35.624;139.698;2022-09-17T12:45:39;101290.00;;;26.00;55.52
53659;BME280;41524;35.624;139.698;2022-09-17T12:50:23;101284.00;;;26.47;54.43
53659;BME280;41524;35.624;139.698;2022-09-17T12:55:26;101278.00;;;27.74;51.74
53659;BME280;41524;35.624;139.698;2022-09-17T13:00:19;101274.00;;;26.46;54.67
53659;BME280;41524;35.624;139.698;2022-09-17T13:05:46;101269.00;;;25.96;54.85
53659;BME280;41524;35.624;139.698;2022-09-17T13:10:39;101262.00;;;25.61;56.18
53659;BME280;41524;35.624;139.698;2022-09-17T13:15:34;101253.00;;;25.67;56.34
53659;BME280;41524;35.624;139.698;2022-09-17T13:20:16;101255.00;;;25.37;56.93
53659;BME280;41524;35.624;139.698;2022-09-17T13:25:13;101252.00;;;26.18;55.42
53659;BME280;41524;35.624;139.698;2022-09-17T13:30:14;101245.00;;;25.80;56.46
53659;BME280;41524;35.624;139.698;2022-09-17T13:35:51;101244.00;;;26.04;56.48
53659;BME280;41524;35.624;139.698;2022-09-17T13:40:21;101250.00;;;25.91;56.89
53659;BME280;41524;35.624;139.698;2022-09-17T13:45:17;101253.00;;;27.43;54.15
53659;BME280;41524;35.624;139.698;2022-09-17T13:50:21;101247.00;;;25.78;57.98
53659;BME280;41524;35.624;139.698;2022-09-17T13:55:33;101245.00;;;26.39;56.86
53659;BME280;41524;35.624;139.698;2022-09-17T14:00:49;101242.00;;;25.92;58.15
53659;BME280;41524;35.624;139.698;2022-09-17T14:05:34;101240.00;;;26.69;56.83
53659;BME280;41524;35.624;139.698;2022-09-17T14:10:35;101241.00;;;25.71;59.07
53659;BME280;41524;35.624;139.698;2022-09-17T14:20:15;101242.00;;;26.43;58.09
53659;BME280;41524;35.624;139.698;2022-09-17T14:25:25;101237.00;;;26.71;57.02
53659;BME280;41524;35.624;139.698;2022-09-17T14:30:18;101235.00;;;25.56;59.54
53659;BME280;41524;35.624;139.698;2022-09-17T14:35:20;101232.00;;;26.01;58.24
53659;BME280;41524;35.624;139.698;2022-09-17T14:40:20;101232.00;;;25.33;60.38
53659;BME280;41524;35.624;139.698;2022-09-17T14:45:16;101231.00;;;24.40;62.40
53659;BME280;41524;35.624;139.698;2022-09-17T14:50:21;101230.00;;;24.63;62.65
53659;BME280;41524;35.624;139.698;2022-09-17T14:55:17;101227.00;;;25.07;61.74
53659;BME280;41524;35.624;139.698;2022-09-17T15:00:23;101234.00;;;24.46;63.81
53659;BME280;41524;35.624;139.698;2022-09-17T15:05:22;101232.00;;;24.21;66.39
53659;BME280;41524;35.624;139.698;2022-09-17T15:10:16;101223.00;;;23.84;68.38
53659;BME280;41524;35.624;139.698;2022-09-17T15:15:18;101217.00;;;23.82;69.65
53659;BME280;41524;35.624;139.698;2022-09-17T15:20:16;101216.00;;;25.28;65.89
53659;BME280;41524;35.624;139.698;2022-09-17T15:25:18;101220.00;;;24.39;66.47
53659;BME280;41524;35.624;139.698;2022-09-17T15:30:13;101226.00;;;25.77;62.73
53659;BME280;41524;35.624;139.698;2022-09-17T15:35:20;101237.00;;;25.29;62.62
53659;BME280;41524;35.624;139.698;2022-09-17T15:40:14;101230.00;;;25.78;61.43
53659;BME280;41524;35.624;139.698;2022-09-17T15:45:19;101232.00;;;25.81;62.50
53659;BME280;41524;35.624;139.698;2022-09-17T15:50:16;101235.00;;;25.65;61.49
53659;BME280;41524;35.624;139.698;2022-09-17T15:55:45;101232.00;;;26.60;59.20
53659;BME280;41524;35.624;139.698;2022-09-17T16:00:13;101235.00;;;24.93;62.34
53659;BME280;41524;35.624;139.698;2022-09-17T16:06:34;101238.00;;;25.65;60.57
53659;BME280;41524;35.624;139.698;2022-09-17T16:10:12;101232.00;;;24.88;63.16
53659;BME280;41524;35.624;139.698;2022-09-17T16:15:13;101221.00;;;24.44;63.91
53659;BME280;41524;35.624;139.698;2022-09-17T16:20:15;101219.00;;;23.74;65.51
53659;BME280;41524;35.624;139.698;2022-09-17T16:25:11;101214.00;;;24.94;62.77
53659;BME280;41524;35.624;139.698;2022-09-17T16:30:15;101215.00;;;25.00;62.09
53659;BME280;41524;35.624;139.698;2022-09-17T16:35:13;101206.00;;;25.40;61.45
53659;BME280;41524;35.624;139.698;2022-09-17T16:40:12;101201.00;;;25.75;60.28
53659;BME280;41524;35.624;139.698;2022-09-17T16:45:11;101199.00;;;25.00;62.28
53659;BME280;41524;35.624;139.698;2022-09-17T16:50:12;101196.00;;;24.77;62.68
53659;BME280;41524;35.624;139.698;2022-09-17T16:55:12;101187.00;;;25.66;61.19
53659;BME280;41524;35.624;139.698;2022-09-17T17:00:13;101175.00;;;25.78;61.07
53659;BME280;41524;35.624;139.698;2022-09-17T17:05:11;101181.00;;;25.03;61.77
53659;BME280;41524;35.624;139.698;2022-09-17T17:10:12;101175.00;;;24.55;62.88
53659;BME280;41524;35.624;139.698;2022-09-17T17:15:12;101166.00;;;24.99;61.99
53659;BME280;41524;35.624;139.698;2022-09-17T17:20:10;101156.00;;;25.03;62.80
53659;BME280;41524;35.624;139.698;2022-09-17T17:25:12;101156.00;;;24.95;62.46
53659;BME280;41524;35.624;139.698;2022-09-17T17:30:11;101155.00;;;24.91;62.49
53659;BME280;41524;35.624;139.698;2022-09-17T17:35:11;101157.00;;;25.31;61.54
53659;BME280;41524;35.624;139.698;2022-09-17T17:40:11;101160.00;;;24.63;63.24
53659;BME280;41524;35.624;139.698;2022-09-17T17:45:11;101152.00;;;24.28;63.92
53659;BME280;41524;35.624;139.698;2022-09-17T17:50:11;101156.00;;;25.28;61.73
53659;BME280;41524;35.624;139.698;2022-09-17T17:55:10;101158.00;;;25.73;60.84
53659;BME280;41524;35.624;139.698;2022-09-17T18:00:11;101163.00;;;24.56;63.39
53659;BME280;41524;35.624;139.698;2022-09-17T18:05:11;101161.00;;;24.78;62.62
53659;BME280;41524;35.624;139.698;2022-09-17T18:10:11;101155.00;;;24.25;63.52
53659;BME280;41524;35.624;139.698;2022-09-17T18:15:11;101160.00;;;24.12;64.61
53659;BME280;41524;35.624;139.698;2022-09-17T18:20:13;101160.00;;;24.67;64.18
53659;BME280;41524;35.624;139.698;2022-09-17T18:25:10;101151.00;;;24.99;63.58
53659;BME280;41524;35.624;139.698;2022-09-17T18:30:11;101145.00;;;25.18;62.59
53659;BME280;41524;35.624;139.698;2022-09-17T18:35:10;101143.00;;;24.32;65.01
53659;BME280;41524;35.624;139.698;2022-09-17T18:40:11;101135.00;;;25.15;63.10
53659;BME280;41524;35.624;139.698;2022-09-17T18:45:10;101137.00;;;24.30;65.32
53659;BME280;41524;35.624;139.698;2022-09-17T18:50:12;101137.00;;;24.98;63.45
53659;BME280;41524;35.624;139.698;2022-09-17T18:55:10;101132.00;;;24.43;65.27
53659;BME280;41524;35.624;139.698;2022-09-17T19:00:11;101143.00;;;24.70;66.02
53659;BME280;41524;35.624;139.698;2022-09-17T19:05:11;101141.00;;;25.87;62.56
53659;BME280;41524;35.624;139.698;2022-09-17T19:10:11;101140.00;;;25.66;62.75
53659;BME280;41524;35.624;139.698;2022-09-17T19:15:11;101139.00;;;26.30;61.51
53659;BME280;41524;35.624;139.698;2022-09-17T19:20:11;101137.00;;;25.71;62.21
53659;BME280;41524;35.624;139.698;2022-09-17T19:25:11;101140.00;;;25.29;63.07
53659;BME280;41524;35.624;139.698;2022-09-17T19:30:13;101133.00;;;24.86;64.31
53659;BME280;41524;35.624;139.698;2022-09-17T19:35:10;101126.00;;;25.78;63.24
53659;BME280;41524;35.624;139.698;2022-09-17T19:40:10;101142.00;;;26.40;61.11
53659;BME280;41524;35.624;139.698;2022-09-17T19:45:12;101138.00;;;26.05;61.60
53659;BME280;41524;35.624;139.698;2022-09-17T19:50:10;101143.00;;;24.22;65.47
53659;BME280;41524;35.624;139.698;2022-09-17T19:55:11;101140.00;;;25.48;62.76
53659;BME280;41524;35.624;139.698;2022-09-17T20:00:13;101129.00;;;26.52;60.74
53659;BME280;41524;35.624;139.698;2022-09-17T20:05:11;101106.00;;;25.91;61.46
53659;BME280;41524;35.624;139.698;2022-09-17T20:10:10;101097.00;;;25.84;62.10
53659;BME280;41524;35.624;139.698;2022-09-17T20:15:11;101095.00;;;25.94;61.81
53659;BME280;41524;35.624;139.698;2022-09-17T20:20:11;101090.00;;;25.87;62.33
53659;BME280;41524;35.624;139.698;2022-09-17T20:25:10;101095.00;;;25.02;64.11
53659;BME280;41524;35.624;139.698;2022-09-17T20:30:11;101090.00;;;25.27;63.63
53659;BME280;41524;35.624;139.698;2022-09-17T20:35:11;101099.00;;;26.14;61.71
53659;BME280;41524;35.624;139.698;2022-09-17T20:40:15;101104.00;;;24.11;66.85
53659;BME280;41524;35.624;139.698;2022-09-17T20:45:10;101095.00;;;25.50;63.03
53659;BME280;41524;35.624;139.698;2022-09-17T20:50:10;101099.00;;;25.59;62.65
53659;BME280;41524;35.624;139.698;2022-09-17T20:55:10;101112.00;;;25.09;63.91
53659;BME280;41524;35.624;139.698;2022-09-17T21:00:15;101123.00;;;25.94;62.51
53659;BME280;41524;35.624;139.698;2022-09-17T21:05:10;101132.00;;;25.74;63.15
53659;BME280;41524;35.624;139.698;2022-09-17T21:10:11;101140.00;;;25.16;64.94
53659;BME280;41524;35.624;139.698;2022-09-17T21:15:10;101135.00;;;26.06;62.15
53659;BME280;41524;35.624;139.698;2022-09-17T21:20:13;101133.00;;;26.05;62.11
53659;BME280;41524;35.624;139.698;2022-09-17T21:25:11;101123.00;;;27.05;60.21
53659;BME280;41524;35.624;139.698;2022-09-17T21:30:11;101108.00;;;24.14;67.11
53659;BME280;41524;35.624;139.698;2022-09-17T21:35:15;101100.00;;;26.34;61.55
53659;BME280;41524;35.624;139.698;2022-09-17T21:40:15;101098.00;;;25.77;62.96
53659;BME280;41524;35.624;139.698;2022-09-17T21:45:10;101097.00;;;25.98;61.94
53659;BME280;41524;35.624;139.698;2022-09-17T21:50:15;101102.00;;;24.72;65.68
53659;BME280;41524;35.624;139.698;2022-09-17T21:55:10;101120.00;;;25.47;63.86
53659;BME280;41524;35.624;139.698;2022-09-17T22:00:11;101109.00;;;25.92;62.99
53659;BME280;41524;35.624;139.698;2022-09-17T22:05:10;101102.00;;;22.94;70.85
53659;BME280;41524;35.624;139.698;2022-09-17T22:10:12;101085.00;;;24.51;67.37
53659;BME280;41524;35.624;139.698;2022-09-17T22:15:15;101086.00;;;26.18;63.24
53659;BME280;41524;35.624;139.698;2022-09-17T22:20:12;101089.00;;;23.04;70.94
53659;BME280;41524;35.624;139.698;2022-09-17T22:25:11;101075.00;;;25.24;64.57
53659;BME280;41524;35.624;139.698;2022-09-17T22:30:10;101095.00;;;25.41;64.49
53659;BME280;41524;35.624;139.698;2022-09-17T22:35:11;101086.00;;;24.22;68.50
53659;BME280;41524;35.624;139.698;2022-09-17T22:40:15;101080.00;;;24.97;67.26
53659;BME280;41524;35.624;139.698;2022-09-17T22:45:11;101087.00;;;24.20;67.78
53659;BME280;41524;35.624;139.698;2022-09-17T22:50:11;101080.00;;;24.75;66.82
53659;BME280;41524;35.624;139.698;2022-09-17T22:55:11;101070.00;;;23.95;69.74
53659;BME280;41524;35.624;139.698;2022-09-17T23:00:16;101078.00;;;25.83;65.47
53659;BME280;41524;35.624;139.698;2022-09-17T23:05:10;101064.00;;;25.18;66.85
53659;BME280;41524;35.624;139.698;2022-09-17T23:10:21;101054.00;;;23.79;70.61
53659;BME280;41524;35.624;139.698;2022-09-17T23:15:11;101039.00;;;24.00;69.52
53659;BME280;41524;35.624;139.698;2022-09-17T23:20:10;101043.00;;;24.35;69.02
53659;BME280;41524;35.624;139.698;2022-09-17T23:25:16;101055.00;;;25.30;67.80
53659;BME280;41524;35.624;139.698;2022-09-17T23:30:15;101063.00;;;24.61;68.61
53659;BME280;41524;35.624;139.698;2022-09-17T23:35:10;101057.00;;;24.55;68.28
53659;BME280;41524;35.624;139.698;2022-09-17T23:40:13;101042.00;;;23.71;71.65
53659;BME280;41524;35.624;139.698;2022-09-17T23:45:10;101031.00;;;24.25;70.27
53659;BME280;41524;35.624;139.698;2022-09-17T23:50:10;101015.00;;;25.28;67.40
53659;BME280;41524;35.624;139.698;2022-09-17T23:55:11;101007.00;;;25.87;64.90
